sensor_id;sensor_type;location;lat;lon;timestamp;pressure;altitude;pressure_sealevel;temperature;humidity
66880;BME280;53789;51.392;10.234;2023-07-31T00:00:16;97792.56;;;15.15;100.00
66880;BME280;53789;51.392;10.234;2023-07-31T00:00:36;97786.19;;;15.15;100.00
66880;BME280;53789;51.392;10.234;2023-07-31T00:00:57;97783.06;;;15.16;100.00
66880;BME280;53789;51.392;10.234;2023-07-31T00:01:18;97787.47;;;15.18;100.00
66880;BME280;53789;51.392;10.234;2023-07-31T00:01:38;97777.19;;;15.18;100.00
66880;BME280;53789;51.392;10.234;2023-07-31T00:01:58;97777.19;;;15.18;100.00
66880;BME280;53789;51.392;10.234;2023-07-31T00:02:19;97785.50;;;15.18;100.00
66880;BME280;53789;51.392;10.234;2023-07-31T00:02:39;97787.94;;;15.20;100.00
66880;BME280;53789;51.392;10.234;2023-07-31T00:02:59;97781.91;;;15.18;100.00
66880;BME280;53789;51.392;10.234;2023-07-31T00:03:19;97783.88;;;15.17;100.00
66880;BME280;53789;51.392;10.234;2023-07-31T00:03:40;97776.72;;;15.16;100.00
66880;BME280;53789;51.392;10.234;2023-07-31T00:04:00;97783.88;;;15.17;100.00
66880;BME280;53789;51.392;10.234;2023-07-31T00:04:20;97784.69;;;15.18;100.00
66880;BME280;53789;51.392;10.234;2023-07-31T00:04:41;97774.44;;;15.18;100.00
66880;BME280;53789;51.392;10.234;2023-07-31T00:05:01;97778.00;;;15.19;100.00
66880;BME280;53789;51.392;10.234;2023-07-31T00:05:22;97779.97;;;15.18;100.00
66880;BME280;53789;51.392;10.234;2023-07-31T00:05:42;97767.72;;;15.19;100.00
66880;BME280;53789;51.392;10.234;2023-07-31T00:06:02;97770.84;;;15.18;100.00
66880;BME280;53789;51.392;10.234;2023-07-31T00:06:22;97771.97;;;15.16;100.00
66880;BME280;53789;51.392;10.234;2023-07-31T00:06:43;97766.44;;;15.16;100.00
66880;BME280;53789;51.392;10.234;2023-07-31T00:07:03;97771.53;;;15.14;100.00
66880;BME280;53789;51.392;10.234;2023-07-31T00:07:24;97769.56;;;15.15;100.00
66880;BME280;53789;51.392;10.234;2023-07-31T00:07:44;97765.19;;;15.14;100.00
66880;BME280;53789;51.392;10.234;2023-07-31T00:08:04;97764.03;;;15.15;100.00
66880;BME280;53789;51.392;10.234;2023-07-31T00:08:25;97764.84;;;15.15;100.00
66880;BME280;53789;51.392;10.234;2023-07-31T00:08:45;97762.88;;;15.16;100.00
66880;BME280;53789;51.392;10.234;2023-07-31T00:09:05;97766.44;;;15.16;100.00
66880;BME280;53789;51.392;10.234;2023-07-31T00:09:25;97774.75;;;15.16;100.00
66880;BME280;53789;51.392;10.234;2023-07-31T00:09:46;97766.44;;;15.16;100.00
66880;BME280;53789;51.392;10.234;2023-07-31T00:10:06;97771.19;;;15.16;100.00
66880;BME280;53789;51.392;10.234;2023-07-31T00:10:27;97768.41;;;15.16;100.00
66880;BME280;53789;51.392;10.234;2023-07-31T00:10:47;97761.25;;;15.15;100.00
66880;BME280;53789;51.392;10.234;2023-07-31T00:11:07;97769.13;;;15.13;100.00
66880;BME280;53789;51.392;10.234;2023-07-31T00:11:28;97756.41;;;15.12;100.00
66880;BME280;53789;51.392;10.234;2023-07-31T00:11:48;97763.13;;;15.11;100.00
66880;BME280;53789;51.392;10.234;2023-07-31T00:12:08;97757.59;;;15.11;100.00
66880;BME280;53789;51.392;10.234;2023-07-31T00:12:29;97766.69;;;15.11;100.00
66880;BME280;53789;51.392;10.234;2023-07-31T00:12:49;97759.19;;;15.12;100.00
66880;BME280;53789;51.392;10.234;2023-07-31T00:13:09;97767.50;;;15.12;100.00
66880;BME280;53789;51.392;10.234;2023-07-31T00:13:29;97760.81;;;15.13;100.00
66880;BME280;53789;51.392;10.234;2023-07-31T00:13:50;97767.03;;;15.10;100.00
66880;BME280;53789;51.392;10.234;2023-07-31T00:14:10;97766.25;;;15.09;100.00
66880;BME280;53789;51.392;10.234;2023-07-31T00:14:30;97759.88;;;15.09;100.00
66880;BME280;53789;51.392;10.234;2023-07-31T00:14:51;97762.66;;;15.09;100.00
66880;BME280;53789;51.392;10.234;2023-07-31T00:15:13;97765.41;;;15.09;100.00
66880;BME280;53789;51.392;10.234;2023-07-31T00:15:33;97770.63;;;15.10;100.00
66880;BME280;53789;51.392;10.234;2023-07-31T00:15:54;97763.13;;;15.11;100.00
66880;BME280;53789;51.392;10.234;2023-07-31T00:16:14;97760.34;;;15.11;100.00
66880;BME280;53789;51.392;10.234;2023-07-31T00:16:34;97763.94;;;15.11;100.00
66880;BME280;53789;51.392;10.234;2023-07-31T00:16:55;97767.84;;;15.10;100.00
66880;BME280;53789;51.392;10.234;2023-07-31T00:17:16;97764.28;;;15.10;100.00
66880;BME280;53789;51.392;10.234;2023-07-31T00:17:37;97768.66;;;15.11;100.00
66880;BME280;53789;51.392;10.234;2023-07-31T00:17:57;97772.94;;;15.08;100.00
66880;BME280;53789;51.392;10.234;2023-07-31T00:18:17;97773.28;;;15.07;100.00
66880;BME280;53789;51.392;10.234;2023-07-31T00:18:38;97768.88;;;15.06;100.00
66880;BME280;53789;51.392;10.234;2023-07-31T00:18:58;97768.09;;;15.05;100.00
66880;BME280;53789;51.392;10.234;2023-07-31T00:19:18;97768.88;;;15.06;100.00
66880;BME280;53789;51.392;10.234;2023-07-31T00:19:39;97766.13;;;15.06;100.00
66880;BME280;53789;51.392;10.234;2023-07-31T00:19:59;97770.03;;;15.05;100.00
66880;BME280;53789;51.392;10.234;2023-07-31T00:20:19;97764.50;;;15.05;100.00
66880;BME280;53789;51.392;10.234;2023-07-31T00:20:40;97764.50;;;15.05;100.00
66880;BME280;53789;51.392;10.234;2023-07-31T00:21:00;97761.41;;;15.06;100.00
66880;BME280;53789;51.392;10.234;2023-07-31T00:21:20;97766.94;;;15.06;100.00
66880;BME280;53789;51.392;10.234;2023-07-31T00:21:41;97763.34;;;15.06;100.00
66880;BME280;53789;51.392;10.234;2023-07-31T00:22:01;97764.97;;;15.07;100.00
66880;BME280;53789;51.392;10.234;2023-07-31T00:22:21;97759.09;;;15.08;100.00
66880;BME280;53789;51.392;10.234;2023-07-31T00:22:41;97759.09;;;15.08;100.00
66880;BME280;53789;51.392;10.234;2023-07-31T00:23:02;97760.59;;;15.06;100.00
66880;BME280;53789;51.392;10.234;2023-07-31T00:23:22;97758.97;;;15.05;100.00
66880;BME280;53789;51.392;10.234;2023-07-31T00:23:42;97762.56;;;15.05;100.00
66880;BME280;53789;51.392;10.234;2023-07-31T00:24:03;97768.09;;;15.05;100.00
66880;BME280;53789;51.392;10.234;2023-07-31T00:24:23;97761.28;;;15.03;100.00
66880;BME280;53789;51.392;10.234;2023-07-31T00:24:43;97759.31;;;15.03;100.00
66880;BME280;53789;51.392;10.234;2023-07-31T00:25:04;97761.28;;;15.03;100.00
66880;BME280;53789;51.392;10.234;2023-07-31T00:25:24;97772.69;;;15.01;100.00
66880;BME280;53789;51.392;10.234;2023-07-31T00:25:44;97760.69;;;14.97;100.00
66880;BME280;53789;51.392;10.234;2023-07-31T00:26:05;97755.63;;;14.99;100.00
66880;BME280;53789;51.392;10.234;2023-07-31T00:26:25;97758.41;;;14.99;100.00
66880;BME280;53789;51.392;10.234;2023-07-31T00:26:45;97760.00;;;15.00;100.00
66880;BME280;53789;51.392;10.234;2023-07-31T00:27:06;97756.78;;;14.98;100.00
66880;BME280;53789;51.392;10.234;2023-07-31T00:27:26;97759.09;;;14.96;100.00
66880;BME280;53789;51.392;10.234;2023-07-31T00:27:46;97755.06;;;14.93;100.00
66880;BME280;53789;51.392;10.234;2023-07-31T00:28:06;97758.63;;;14.94;100.00
66880;BME280;53789;51.392;10.234;2023-07-31T00:28:27;97768.09;;;14.93;100.00
66880;BME280;53789;51.392;10.234;2023-07-31T00:28:47;97762.44;;;14.89;100.00
66880;BME280;53789;51.392;10.234;2023-07-31T00:29:07;97759.22;;;14.87;100.00
66880;BME280;53789;51.392;10.234;2023-07-31T00:29:28;97760.81;;;14.88;100.00
66880;BME280;53789;51.392;10.234;2023-07-31T00:29:48;97751.72;;;14.88;100.00
66880;BME280;53789;51.392;10.234;2023-07-31T00:30:09;97756.09;;;14.89;100.00
66880;BME280;53789;51.392;10.234;2023-07-31T00:30:29;97752.50;;;14.88;100.00
66880;BME280;53789;51.392;10.234;2023-07-31T00:30:49;97753.00;;;14.90;100.00
66880;BME280;53789;51.392;10.234;2023-07-31T00:31:10;97754.13;;;14.89;100.00
66880;BME280;53789;51.392;10.234;2023-07-31T00:31:30;97758.88;;;14.89;100.00
66880;BME280;53789;51.392;10.234;2023-07-31T00:31:50;97763.59;;;14.88;100.00
66880;BME280;53789;51.392;10.234;2023-07-31T00:32:11;97761.66;;;14.89;100.00
66880;BME280;53789;51.392;10.234;2023-07-31T00:32:31;97743.06;;;14.89;100.00
66880;BME280;53789;51.392;10.234;2023-07-31T00:32:51;97753.00;;;14.90;100.00
66880;BME280;53789;51.392;10.234;2023-07-31T00:33:12;97751.38;;;14.89;100.00
66880;BME280;53789;51.392;10.234;2023-07-31T00:33:35;97753.34;;;14.89;100.00
66880;BME280;53789;51.392;10.234;2023-07-31T00:33:55;97751.38;;;14.89;100.00
66880;BME280;53789;51.392;10.234;2023-07-31T00:34:16;97752.50;;;14.88;100.00
66880;BME280;53789;51.392;10.234;2023-07-31T00:34:37;97750.56;;;14.89;100.00
66880;BME280;53789;51.392;10.234;2023-07-31T00:34:57;97748.59;;;14.89;100.00
66880;BME280;53789;51.392;10.234;2023-07-31T00:35:17;97749.41;;;14.90;100.00
66880;BME280;53789;51.392;10.234;2023-07-31T00:35:38;97754.13;;;14.89;100.00
66880;BME280;53789;51.392;10.234;2023-07-31T00:35:58;97754.59;;;14.91;100.00
66880;BME280;53789;51.392;10.234;2023-07-31T00:36:18;97750.22;;;14.90;100.00
66880;BME280;53789;51.392;10.234;2023-07-31T00:36:38;97754.13;;;14.89;100.00
66880;BME280;53789;51.392;10.234;2023-07-31T00:36:59;97748.59;;;14.89;100.00
66880;BME280;53789;51.392;10.234;2023-07-31T00:37:19;97741.91;;;14.90;100.00
66880;BME280;53789;51.392;10.234;2023-07-31T00:37:39;97748.59;;;14.89;100.00
66880;BME280;53789;51.392;10.234;2023-07-31T00:38:00;97743.84;;;14.90;100.00
66880;BME280;53789;51.392;10.234;2023-07-31T00:38:20;97744.69;;;14.90;100.00
66880;BME280;53789;51.392;10.234;2023-07-31T00:38:40;97746.28;;;14.91;100.00
66880;BME280;53789;51.392;10.234;2023-07-31T00:39:00;97749.88;;;14.92;100.00
66880;BME280;53789;51.392;10.234;2023-07-31T00:39:21;97748.25;;;14.91;100.00
66880;BME280;53789;51.392;10.234;2023-07-31T00:39:41;97742.72;;;14.91;100.00
66880;BME280;53789;51.392;10.234;2023-07-31T00:40:02;97749.06;;;14.91;100.00
66880;BME280;53789;51.392;10.234;2023-07-31T00:40:23;97747.81;;;14.89;100.00
66880;BME280;53789;51.392;10.234;2023-07-31T00:40:43;97747.44;;;14.90;100.00
66880;BME280;53789;51.392;10.234;2023-07-31T00:41:03;97750.22;;;14.90;100.00
66880;BME280;53789;51.392;10.234;2023-07-31T00:41:24;97745.47;;;14.91;100.00
66880;BME280;53789;51.392;10.234;2023-07-31T00:41:44;97739.94;;;14.91;100.00
66880;BME280;53789;51.392;10.234;2023-07-31T00:42:05;97741.22;;;14.93;100.00
66880;BME280;53789;51.392;10.234;2023-07-31T00:42:25;97742.84;;;14.94;100.00
66880;BME280;53789;51.392;10.234;2023-07-31T00:42:45;97742.84;;;14.94;100.00
66880;BME280;53789;51.392;10.234;2023-07-31T00:43:06;97751.16;;;14.94;100.00
66880;BME280;53789;51.392;10.234;2023-07-31T00:43:26;97739.25;;;14.94;100.00
66880;BME280;53789;51.392;10.234;2023-07-31T00:43:46;97743.63;;;14.95;100.00
66880;BME280;53789;51.392;10.234;2023-07-31T00:44:07;97743.28;;;14.96;100.00
66880;BME280;53789;51.392;10.234;2023-07-31T00:44:27;97739.72;;;14.96;100.00
66880;BME280;53789;51.392;10.234;2023-07-31T00:44:47;97742.16;;;14.97;100.00
66880;BME280;53789;51.392;10.234;2023-07-31T00:45:08;97740.06;;;14.94;100.00
66880;BME280;53789;51.392;10.234;2023-07-31T00:45:29;97743.28;;;14.96;100.00
66880;BME280;53789;51.392;10.234;2023-07-31T00:45:49;97736.59;;;14.97;100.00
66880;BME280;53789;51.392;10.234;2023-07-31T00:46:10;97740.16;;;14.98;100.00
66880;BME280;53789;51.392;10.234;2023-07-31T00:46:30;97738.19;;;14.98;100.00
66880;BME280;53789;51.392;10.234;2023-07-31T00:46:51;97729.09;;;14.98;100.00
66880;BME280;53789;51.392;10.234;2023-07-31T00:47:12;97729.53;;;15.00;100.00
66880;BME280;53789;51.392;10.234;2023-07-31T00:47:33;97733.94;;;15.01;100.00
66880;BME280;53789;51.392;10.234;2023-07-31T00:47:54;97733.94;;;15.01;100.00
66880;BME280;53789;51.392;10.234;2023-07-31T00:48:14;97743.03;;;15.02;100.00
66880;BME280;53789;51.392;10.234;2023-07-31T00:48:35;97746.63;;;15.02;100.00
66880;BME280;53789;51.392;10.234;2023-07-31T00:48:56;97743.88;;;15.02;100.00
66880;BME280;53789;51.392;10.234;2023-07-31T00:49:17;97744.66;;;15.03;100.00
66880;BME280;53789;51.392;10.234;2023-07-31T00:49:38;97734.72;;;15.02;100.00
66880;BME280;53789;51.392;10.234;2023-07-31T00:49:58;97740.75;;;15.04;100.00
66880;BME280;53789;51.392;10.234;2023-07-31T00:50:19;97746.63;;;15.02;100.00
66880;BME280;53789;51.392;10.234;2023-07-31T00:50:39;97747.44;;;15.03;100.00
66880;BME280;53789;51.392;10.234;2023-07-31T00:51:00;97741.09;;;15.02;100.00
66880;BME280;53789;51.392;10.234;2023-07-31T00:51:20;97735.56;;;15.02;100.00
66880;BME280;53789;51.392;10.234;2023-07-31T00:51:40;97735.91;;;15.01;100.00
66880;BME280;53789;51.392;10.234;2023-07-31T00:52:01;97738.69;;;15.01;100.00
66880;BME280;53789;51.392;10.234;2023-07-31T00:52:21;97740.63;;;15.00;100.00
66880;BME280;53789;51.392;10.234;2023-07-31T00:52:42;97741.44;;;15.01;100.00
66880;BME280;53789;51.392;10.234;2023-07-31T00:53:02;97741.78;;;14.99;100.00
66880;BME280;53789;51.392;10.234;2023-07-31T00:53:24;97742.25;;;15.01;100.00
66880;BME280;53789;51.392;10.234;2023-07-31T00:53:45;97739.81;;;15.00;100.00
66880;BME280;53789;51.392;10.234;2023-07-31T00:54:06;97740.63;;;15.00;100.00
66880;BME280;53789;51.392;10.234;2023-07-31T00:54:27;97737.06;;;15.00;100.00
66880;BME280;53789;51.392;10.234;2023-07-31T00:54:49;97740.97;;;14.98;100.00
66880;BME280;53789;51.392;10.234;2023-07-31T00:55:09;97744.56;;;14.99;100.00
66880;BME280;53789;51.392;10.234;2023-07-31T00:55:30;97740.53;;;14.96;100.00
66880;BME280;53789;51.392;10.234;2023-07-31T00:55:53;97725.06;;;14.95;100.00
66880;BME280;53789;51.392;10.234;2023-07-31T00:56:13;97733.38;;;14.95;100.00
66880;BME280;53789;51.392;10.234;2023-07-31T00:56:34;97733.38;;;14.95;100.00
66880;BME280;53789;51.392;10.234;2023-07-31T00:56:54;97745.25;;;14.96;100.00
66880;BME280;53789;51.392;10.234;2023-07-31T00:57:15;97734.19;;;14.96;100.00
66880;BME280;53789;51.392;10.234;2023-07-31T00:57:36;97735.78;;;14.97;100.00
66880;BME280;53789;51.392;10.234;2023-07-31T00:57:58;97731.88;;;14.98;100.00
66880;BME280;53789;51.392;10.234;2023-07-31T00:58:18;97723.22;;;15.00;100.00
66880;BME280;53789;51.392;10.234;2023-07-31T00:58:39;97732.31;;;15.00;100.00
66880;BME280;53789;51.392;10.234;2023-07-31T00:58:59;97734.28;;;15.00;100.00
66880;BME280;53789;51.392;10.234;2023-07-31T00:59:20;97737.06;;;15.00;100.00
66880;BME280;53789;51.392;10.234;2023-07-31T00:59:40;97738.19;;;14.98;100.00
66880;BME280;53789;51.392;10.234;2023-07-31T01:00:00;97731.06;;;14.97;100.00
66880;BME280;53789;51.392;10.234;2023-07-31T01:00:21;97731.88;;;14.98;100.00
66880;BME280;53789;51.392;10.234;2023-07-31T01:00:41;97729.09;;;14.98;100.00
66880;BME280;53789;51.392;10.234;2023-07-31T01:01:02;97732.66;;;14.98;100.00
66880;BME280;53789;51.392;10.234;2023-07-31T01:01:22;97739.03;;;14.99;100.00
66880;BME280;53789;51.392;10.234;2023-07-31T01:01:42;97733.50;;;14.99;100.00
66880;BME280;53789;51.392;10.234;2023-07-31T01:02:04;97729.53;;;15.00;100.00
66880;BME280;53789;51.392;10.234;2023-07-31T01:02:24;97733.13;;;15.01;100.00
66880;BME280;53789;51.392;10.234;2023-07-31T01:02:45;97724.47;;;15.02;100.00
66880;BME280;53789;51.392;10.234;2023-07-31T01:03:05;97737.50;;;15.02;100.00
66880;BME280;53789;51.392;10.234;2023-07-31T01:03:26;97725.28;;;15.03;100.00
66880;BME280;53789;51.392;10.234;2023-07-31T01:03:46;97729.66;;;15.04;100.00
66880;BME280;53789;51.392;10.234;2023-07-31T01:04:07;97730.47;;;15.04;100.00
66880;BME280;53789;51.392;10.234;2023-07-31T01:04:28;97721.38;;;15.04;100.00
66880;BME280;53789;51.392;10.234;2023-07-31T01:04:49;97727.69;;;15.04;100.00
66880;BME280;53789;51.392;10.234;2023-07-31T01:05:09;97718.59;;;15.04;100.00
66880;BME280;53789;51.392;10.234;2023-07-31T01:06:33;97726.44;;;15.02;100.00
66880;BME280;53789;51.392;10.234;2023-07-31T01:09:40;97714.09;;;14.99;100.00
66880;BME280;53789;51.392;10.234;2023-07-31T01:10:14;97720.78;;;14.98;100.00
66880;BME280;53789;51.392;10.234;2023-07-31T01:10:49;97718.81;;;14.98;100.00
66880;BME280;53789;51.392;10.234;2023-07-31T01:11:17;97721.59;;;14.98;100.00
66880;BME280;53789;51.392;10.234;2023-07-31T01:11:53;97714.81;;;14.96;100.00
66880;BME280;53789;51.392;10.234;2023-07-31T01:12:17;97713.53;;;14.93;100.00
66880;BME280;53789;51.392;10.234;2023-07-31T01:12:38;97708.34;;;14.92;100.00
66880;BME280;53789;51.392;10.234;2023-07-31T01:12:59;97707.66;;;14.95;100.00
66880;BME280;53789;51.392;10.234;2023-07-31T01:13:21;97713.97;;;14.95;100.00
66880;BME280;53789;51.392;10.234;2023-07-31T01:13:43;97709.63;;;14.94;100.00
66880;BME280;53789;51.392;10.234;2023-07-31T01:14:04;97717.56;;;14.96;100.00
66880;BME280;53789;51.392;10.234;2023-07-31T01:14:24;97711.56;;;14.94;100.00
66880;BME280;53789;51.392;10.234;2023-07-31T01:15:04;97706.50;;;14.96;100.00
66880;BME280;53789;51.392;10.234;2023-07-31T01:15:25;97700.13;;;14.95;100.00
66880;BME280;53789;51.392;10.234;2023-07-31T01:15:45;97712.03;;;14.96;100.00
66880;BME280;53789;51.392;10.234;2023-07-31T01:16:06;97704.53;;;14.96;100.00
66880;BME280;53789;51.392;10.234;2023-07-31T01:16:26;97709.63;;;14.94;100.00
66880;BME280;53789;51.392;10.234;2023-07-31T01:16:46;97710.75;;;14.93;100.00
66880;BME280;53789;51.392;10.234;2023-07-31T01:17:06;97717.44;;;14.92;100.00
66880;BME280;53789;51.392;10.234;2023-07-31T01:17:27;97714.69;;;14.92;100.00
66880;BME280;53789;51.392;10.234;2023-07-31T01:17:47;97707.16;;;14.93;100.00
66880;BME280;53789;51.392;10.234;2023-07-31T01:18:07;97707.16;;;14.93;100.00
66880;BME280;53789;51.392;10.234;2023-07-31T01:18:28;97710.28;;;14.91;100.00
66880;BME280;53789;51.392;10.234;2023-07-31T01:18:48;97708.78;;;14.94;100.00
66880;BME280;53789;51.392;10.234;2023-07-31T01:19:11;97709.63;;;14.94;100.00
66880;BME280;53789;51.392;10.234;2023-07-31T01:19:32;97711.22;;;14.95;100.00
66880;BME280;53789;51.392;10.234;2023-07-31T01:19:55;97705.69;;;14.95;100.00
66880;BME280;53789;51.392;10.234;2023-07-31T01:20:24;97712.84;;;14.96;100.00
66880;BME280;53789;51.392;10.234;2023-07-31T01:20:54;97705.69;;;14.95;100.00
66880;BME280;53789;51.392;10.234;2023-07-31T01:22:00;97704.97;;;14.98;100.00
66880;BME280;53789;51.392;10.234;2023-07-31T01:22:58;97704.97;;;14.98;100.00
66880;BME280;53789;51.392;10.234;2023-07-31T01:24:22;97706.59;;;15.00;100.00
66880;BME280;53789;51.392;10.234;2023-07-31T01:26:28;97699.91;;;15.01;100.00
66880;BME280;53789;51.392;10.234;2023-07-31T01:26:58;97701.06;;;15.00;100.00
66880;BME280;53789;51.392;10.234;2023-07-31T01:27:31;97695.53;;;15.00;100.00
66880;BME280;53789;51.392;10.234;2023-07-31T01:28:05;97686.41;;;14.99;100.00
66880;BME280;53789;51.392;10.234;2023-07-31T01:28:39;97693.53;;;15.00;100.00
66880;BME280;53789;51.392;10.234;2023-07-31T01:29:49;97691.59;;;15.01;100.00
66880;BME280;53789;51.392;10.234;2023-07-31T01:30:22;97686.06;;;15.01;100.00
66880;BME280;53789;51.392;10.234;2023-07-31T01:30:48;97693.19;;;15.02;100.00
66880;BME280;53789;51.392;10.234;2023-07-31T01:31:10;97688.47;;;15.02;100.00
66880;BME280;53789;51.392;10.234;2023-07-31T01:31:32;97686.50;;;15.03;100.00
66880;BME280;53789;51.392;10.234;2023-07-31T01:31:55;97679.00;;;15.03;100.00
66880;BME280;53789;51.392;10.234;2023-07-31T01:32:18;97690.91;;;15.04;100.00
66880;BME280;53789;51.392;10.234;2023-07-31T01:32:40;97678.66;;;15.05;100.00
66880;BME280;53789;51.392;10.234;2023-07-31T01:33:03;97682.59;;;15.04;100.00
66880;BME280;53789;51.392;10.234;2023-07-31T01:33:24;97682.94;;;15.02;100.00
66880;BME280;53789;51.392;10.234;2023-07-31T01:33:46;97677.41;;;15.02;100.00
66880;BME280;53789;51.392;10.234;2023-07-31T01:34:09;97686.50;;;15.03;100.00
66880;BME280;53789;51.392;10.234;2023-07-31T01:34:31;97682.13;;;15.02;100.00
66880;BME280;53789;51.392;10.234;2023-07-31T01:34:53;97685.25;;;15.00;100.00
66880;BME280;53789;51.392;10.234;2023-07-31T01:35:14;97683.28;;;15.01;100.00
66880;BME280;53789;51.392;10.234;2023-07-31T01:35:36;97684.88;;;15.02;100.00
66880;BME280;53789;51.392;10.234;2023-07-31T01:35:57;97676.59;;;15.02;100.00
66880;BME280;53789;51.392;10.234;2023-07-31T01:36:18;97679.34;;;15.02;100.00
66880;BME280;53789;51.392;10.234;2023-07-31T01:36:38;97683.75;;;15.03;100.00
66880;BME280;53789;51.392;10.234;2023-07-31T01:36:59;97677.41;;;15.02;100.00
66880;BME280;53789;51.392;10.234;2023-07-31T01:37:19;97679.81;;;15.04;100.00
66880;BME280;53789;51.392;10.234;2023-07-31T01:37:39;97682.59;;;15.04;100.00
66880;BME280;53789;51.392;10.234;2023-07-31T01:38:00;97679.81;;;15.04;100.00
66880;BME280;53789;51.392;10.234;2023-07-31T01:38:21;97685.38;;;15.04;100.00
66880;BME280;53789;51.392;10.234;2023-07-31T01:38:41;97685.38;;;15.04;100.00
66880;BME280;53789;51.392;10.234;2023-07-31T01:39:02;97675.44;;;15.03;100.00
66880;BME280;53789;51.392;10.234;2023-07-31T01:39:22;97686.16;;;15.04;100.00
66880;BME280;53789;51.392;10.234;2023-07-31T01:39:43;97679.00;;;15.03;100.00
66880;BME280;53789;51.392;10.234;2023-07-31T01:40:04;97679.34;;;15.02;100.00
66880;BME280;53789;51.392;10.234;2023-07-31T01:40:25;97678.19;;;15.03;100.00
66880;BME280;53789;51.392;10.234;2023-07-31T01:40:51;97678.56;;;15.01;100.00
66880;BME280;53789;51.392;10.234;2023-07-31T01:41:11;97678.56;;;15.01;100.00
66880;BME280;53789;51.392;10.234;2023-07-31T01:41:32;97675.78;;;15.01;100.00
66880;BME280;53789;51.392;10.234;2023-07-31T01:41:52;97668.28;;;15.02;100.00
66880;BME280;53789;51.392;10.234;2023-07-31T01:42:12;97669.91;;;15.03;100.00
66880;BME280;53789;51.392;10.234;2023-07-31T01:42:33;97679.00;;;15.03;100.00
66880;BME280;53789;51.392;10.234;2023-07-31T01:42:53;97675.00;;;15.01;100.00
66880;BME280;53789;51.392;10.234;2023-07-31T01:43:13;97680.53;;;15.01;100.00
66880;BME280;53789;51.392;10.234;2023-07-31T01:43:34;97673.81;;;15.02;100.00
66880;BME280;53789;51.392;10.234;2023-07-31T01:43:54;97670.69;;;15.03;100.00
66880;BME280;53789;51.392;10.234;2023-07-31T01:44:14;97664.34;;;15.03;100.00
66880;BME280;53789;51.392;10.234;2023-07-31T01:44:34;97673.47;;;15.03;100.00
66880;BME280;53789;51.392;10.234;2023-07-31T01:44:55;97676.22;;;15.03;100.00
66880;BME280;53789;51.392;10.234;2023-07-31T01:45:15;97668.28;;;15.02;100.00
66880;BME280;53789;51.392;10.234;2023-07-31T01:45:35;97670.69;;;15.03;100.00
66880;BME280;53789;51.392;10.234;2023-07-31T01:45:56;97673.47;;;15.03;100.00
66880;BME280;53789;51.392;10.234;2023-07-31T01:46:16;97668.75;;;15.04;100.00
66880;BME280;53789;51.392;10.234;2023-07-31T01:46:36;97671.53;;;15.04;100.00
66880;BME280;53789;51.392;10.234;2023-07-31T01:46:57;97664.34;;;15.03;100.00
66880;BME280;53789;51.392;10.234;2023-07-31T01:47:17;97672.66;;;15.03;100.00
66880;BME280;53789;51.392;10.234;2023-07-31T01:47:37;97671.03;;;15.02;100.00
66880;BME280;53789;51.392;10.234;2023-07-31T01:47:58;97674.28;;;15.04;100.00
66880;BME280;53789;51.392;10.234;2023-07-31T01:48:18;97668.28;;;15.02;100.00
66880;BME280;53789;51.392;10.234;2023-07-31T01:48:38;97661.94;;;15.01;100.00
66880;BME280;53789;51.392;10.234;2023-07-31T01:48:58;97666.34;;;15.02;100.00
66880;BME280;53789;51.392;10.234;2023-07-31T01:49:19;97666.69;;;15.01;100.00
66880;BME280;53789;51.392;10.234;2023-07-31T01:49:39;97664.72;;;15.01;100.00
66880;BME280;53789;51.392;10.234;2023-07-31T01:49:59;97662.28;;;15.00;100.00
66880;BME280;53789;51.392;10.234;2023-07-31T01:50:20;97659.53;;;15.00;100.00
66880;BME280;53789;51.392;10.234;2023-07-31T01:50:40;97664.72;;;15.01;100.00
66880;BME280;53789;51.392;10.234;2023-07-31T01:51:00;97659.16;;;15.01;100.00
66880;BME280;53789;51.392;10.234;2023-07-31T01:51:21;97668.28;;;15.02;100.00
66880;BME280;53789;51.392;10.234;2023-07-31T01:51:41;97664.72;;;15.01;100.00
66880;BME280;53789;51.392;10.234;2023-07-31T01:52:01;97668.28;;;15.02;100.00
66880;BME280;53789;51.392;10.234;2023-07-31T01:52:22;97663.91;;;15.01;100.00
66880;BME280;53789;51.392;10.234;2023-07-31T01:52:42;97671.03;;;15.02;100.00
66880;BME280;53789;51.392;10.234;2023-07-31T01:53:02;97658.38;;;15.01;100.00
66880;BME280;53789;51.392;10.234;2023-07-31T01:53:22;97661.50;;;14.99;100.00
66880;BME280;53789;51.392;10.234;2023-07-31T01:53:43;97665.41;;;14.98;100.00
66880;BME280;53789;51.392;10.234;2023-07-31T01:54:03;97655.97;;;14.99;100.00
66880;BME280;53789;51.392;10.234;2023-07-31T01:54:23;97661.50;;;14.99;100.00
66880;BME280;53789;51.392;10.234;2023-07-31T01:54:44;97663.44;;;14.98;100.00
66880;BME280;53789;51.392;10.234;2023-07-31T01:55:04;97658.94;;;14.94;100.00
66880;BME280;53789;51.392;10.234;2023-07-31T01:55:24;97664.13;;;14.95;100.00
66880;BME280;53789;51.392;10.234;2023-07-31T01:55:45;97659.78;;;14.94;100.00
66880;BME280;53789;51.392;10.234;2023-07-31T01:56:05;97666.13;;;14.95;100.00
66880;BME280;53789;51.392;10.234;2023-07-31T01:56:25;97657.81;;;14.95;100.00
66880;BME280;53789;51.392;10.234;2023-07-31T01:56:46;97653.41;;;14.94;100.00
66880;BME280;53789;51.392;10.234;2023-07-31T01:57:06;97650.28;;;14.95;100.00
66880;BME280;53789;51.392;10.234;2023-07-31T01:57:26;97648.34;;;14.96;100.00
66880;BME280;53789;51.392;10.234;2023-07-31T01:57:47;97657.47;;;14.96;100.00